Time;durP1;ratioP1;P1;durP2;ratioP2;P2;SDS_P1;SDS_P2;PMS_P1;PMS_P2;Temp;Humidity;BMP_temperature;BMP_pressure;BME280_temperature;BME280_humidity;BME280_pressure;Samples;Min_cycle;Max_cycle;Signal;HPM_P1;HPM_P2
2022/10/30 00:01:00;;;;;;;4.93;3.10;;;13.90;99.90;;;;;;5012988;28;20957;-67
2022/10/30 00:03:26;;;;;;;8.00;3.20;;;13.90;99.90;;;;;;5012704;28;20454;-67
2022/10/30 00:05:54;;;;;;;3.50;3.03;;;13.90;99.90;;;;;;5012966;28;20882;-68
2022/10/30 00:08:24;;;;;;;8.53;2.93;;;13.90;99.90;;;;;;5013107;28;20965;-67
2022/10/30 00:10:51;;;;;;;8.63;3.70;;;13.90;99.90;;;;;;5012943;28;20462;-68
2022/10/30 00:13:19;;;;;;;3.93;2.60;;;13.80;99.90;;;;;;5012506;28;20493;-68
2022/10/30 00:15:51;;;;;;;8.23;3.60;;;13.80;99.90;;;;;;5012888;28;20486;-68
2022/10/30 00:18:19;;;;;;;6.43;3.70;;;13.80;99.90;;;;;;5013131;28;20809;-67
2022/10/30 00:20:45;;;;;;;3.30;2.60;;;13.80;99.90;;;;;;5012836;28;20506;-67
2022/10/30 00:23:12;;;;;;;3.77;3.20;;;13.90;99.90;;;;;;5012335;28;20466;-68
2022/10/30 00:25:39;;;;;;;4.90;2.90;;;13.90;99.90;;;;;;5012800;28;20478;-67
2022/10/30 00:28:06;;;;;;;7.53;3.30;;;13.90;99.90;;;;;;5012585;28;20468;-68
2022/10/30 00:30:34;;;;;;;3.80;2.87;;;13.90;99.90;;;;;;5012634;28;20461;-67
2022/10/30 00:33:02;;;;;;;4.27;3.13;;;13.90;99.90;;;;;;5012125;28;20490;-67
2022/10/30 00:35:29;;;;;;;5.13;2.90;;;13.90;99.90;;;;;;5012576;28;21300;-67
2022/10/30 00:37:56;;;;;;;3.90;2.70;;;13.80;99.90;;;;;;5012301;28;20536;-67
2022/10/30 00:40:23;;;;;;;4.13;2.60;;;13.80;99.90;;;;;;5012401;28;20469;-68
2022/10/30 00:42:50;;;;;;;4.47;2.87;;;13.80;99.90;;;;;;5011836;28;20462;-67
2022/10/30 00:45:18;;;;;;;3.50;2.80;;;13.80;99.90;;;;;;5012491;28;20517;-68
2022/10/30 00:47:50;;;;;;;7.17;3.37;;;13.70;99.90;;;;;;5012325;28;20476;-66
2022/10/30 00:50:21;;;;;;;5.13;3.40;;;13.70;99.90;;;;;;5012226;28;20485;-67
2022/10/30 00:52:52;;;;;;;5.03;3.13;;;13.80;99.90;;;;;;5011877;28;20513;-68
2022/10/30 00:55:23;;;;;;;3.27;2.97;;;13.80;99.90;;;;;;5012205;28;20486;-66
2022/10/30 00:57:52;;;;;;;4.50;3.10;;;13.70;99.90;;;;;;5012320;28;20468;-67
2022/10/30 01:00:22;;;;;;;6.27;3.17;;;13.70;99.90;;;;;;5012020;28;20462;-68
2022/10/30 01:02:49;;;;;;;5.00;3.57;;;13.70;99.90;;;;;;5011511;28;20465;-67
2022/10/30 01:05:21;;;;;;;5.00;2.80;;;13.70;99.90;;;;;;5012008;28;20865;-67
2022/10/30 01:07:48;;;;;;;7.67;3.20;;;13.70;99.90;;;;;;5011951;28;20473;-67
2022/10/30 01:10:15;;;;;;;4.00;3.10;;;13.70;99.90;;;;;;5011790;28;20477;-67
2022/10/30 01:12:44;;;;;;;5.30;2.70;;;13.70;99.90;;;;;;5011250;28;20482;-68
2022/10/30 01:15:12;;;;;;;4.00;3.07;;;13.70;99.90;;;;;;5011606;28;20490;-67
2022/10/30 01:17:58;;;;;;;4.47;2.80;;;13.60;99.90;;;;;;5011864;28;20980;-68
2022/10/30 01:20:47;;;;;;;4.20;3.10;;;13.60;99.90;;;;;;5011783;28;20462;-67
2022/10/30 01:23:25;;;;;;;4.23;3.57;;;13.60;99.90;;;;;;5011136;28;20462;-68
2022/10/30 01:26:05;;;;;;;6.00;3.37;;;13.60;99.90;;;;;;5011511;28;21013;-68
2022/10/30 01:28:53;;;;;;;4.40;2.93;;;13.60;99.90;;;;;;5011638;28;20490;-68
2022/10/30 01:31:33;;;;;;;4.67;3.30;;;13.60;99.90;;;;;;5010610;28;20476;-67
2022/10/30 01:34:10;;;;;;;4.33;3.00;;;13.50;99.90;;;;;;5011407;28;20488;-66
2022/10/30 01:36:43;;;;;;;3.87;2.93;;;13.50;99.90;;;;;;5011557;28;20466;-67
2022/10/30 01:39:14;;;;;;;7.50;3.50;;;13.60;99.90;;;;;;5011229;28;20457;-67
2022/10/30 01:41:40;;;;;;;3.30;2.50;;;13.50;99.90;;;;;;5010943;28;20973;-67
2022/10/30 01:44:12;;;;;;;3.83;3.13;;;13.50;99.90;;;;;;5011159;28;20570;-67
2022/10/30 01:46:49;;;;;;;4.07;2.80;;;13.50;99.90;;;;;;5011336;28;20473;-67
2022/10/30 01:49:34;;;;;;;6.53;3.43;;;13.50;99.90;;;;;;5010596;28;20465;-68
2022/10/30 01:52:12;;;;;;;4.43;3.43;;;13.50;99.90;;;;;;5010643;28;20465;-67
2022/10/30 01:54:45;;;;;;;6.13;3.47;;;13.50;99.90;;;;;;5011321;28;20478;-67
2022/10/30 01:57:21;;;;;;;2.60;2.40;;;13.50;99.90;;;;;;5010957;28;20466;-67
2022/10/30 01:59:53;;;;;;;4.00;3.50;;;13.50;99.90;;;;;;5011203;28;20458;-68
2022/10/30 02:02:20;;;;;;;6.63;3.00;;;13.40;99.90;;;;;;5010476;28;20485;-68
2022/10/30 02:04:46;;;;;;;4.20;3.33;;;13.40;99.90;;;;;;5010997;28;20486;-67
2022/10/30 02:07:15;;;;;;;3.07;2.73;;;13.40;99.90;;;;;;5010786;28;20461;-66
2022/10/30 02:09:42;;;;;;;6.53;3.60;;;13.40;99.90;;;;;;5011129;28;20819;-68
2022/10/30 02:12:09;;;;;;;3.70;2.63;;;13.40;99.90;;;;;;5010242;28;20458;-68
2022/10/30 02:14:40;;;;;;;5.50;3.10;;;13.40;99.90;;;;;;5011026;28;20850;-68
2022/10/30 02:17:08;;;;;;;6.43;3.43;;;13.40;99.90;;;;;;5011052;28;20469;-68
2022/10/30 02:19:35;;;;;;;3.80;2.87;;;13.40;99.90;;;;;;5011049;28;20469;-67
2022/10/30 02:22:03;;;;;;;3.90;2.90;;;13.40;99.90;;;;;;5010345;28;20988;-67
2022/10/30 02:24:30;;;;;;;6.20;3.83;;;13.40;99.90;;;;;;5010932;28;20478;-67
2022/10/30 02:26:57;;;;;;;4.10;3.20;;;13.40;99.90;;;;;;5010951;28;20809;-68
2022/10/30 02:29:24;;;;;;;4.27;2.77;;;13.40;99.90;;;;;;5010711;28;20469;-67
2022/10/30 02:31:51;;;;;;;7.47;3.40;;;13.40;99.90;;;;;;5010507;28;20957;-67
2022/10/30 02:34:17;;;;;;;11.23;2.73;;;13.40;99.90;;;;;;5010785;28;20490;-68
2022/10/30 02:36:44;;;;;;;4.63;3.40;;;13.50;99.90;;;;;;5010924;28;20852;-68
2022/10/30 02:39:12;;;;;;;4.47;3.20;;;13.50;99.90;;;;;;5010822;28;20465;-67
2022/10/30 02:41:39;;;;;;;5.10;2.90;;;13.50;99.90;;;;;;5010338;28;20468;-68
2022/10/30 02:44:06;;;;;;;7.90;3.20;;;13.40;99.90;;;;;;5010630;28;20473;-68
2022/10/30 02:46:33;;;;;;;7.87;2.57;;;13.50;99.90;;;;;;5010553;28;20473;-66
2022/10/30 02:49:00;;;;;;;3.67;2.83;;;13.50;99.90;;;;;;5010865;28;20474;-66
2022/10/30 02:51:26;;;;;;;4.30;3.60;;;13.40;99.90;;;;;;5010169;28;20466;-67
2022/10/30 02:53:53;;;;;;;4.20;3.00;;;13.40;99.90;;;;;;5010569;28;21024;-67
2022/10/30 02:56:21;;;;;;;3.30;2.67;;;13.40;99.90;;;;;;5010486;28;20988;-67
2022/10/30 02:58:48;;;;;;;3.20;2.67;;;13.40;99.90;;;;;;5010707;28;20458;-67
2022/10/30 03:01:17;;;;;;;4.17;3.17;;;13.30;99.90;;;;;;5011138;28;20825;-67
2022/10/30 03:03:44;;;;;;;5.03;3.40;;;13.30;99.90;;;;;;5014392;28;20460;-67
2022/10/30 03:06:14;;;;;;;7.00;3.90;;;13.30;99.90;;;;;;5014233;28;20480;-67
2022/10/30 03:08:41;;;;;;;3.80;2.70;;;13.20;99.90;;;;;;5014227;28;20470;-65
2022/10/30 03:11:10;;;;;;;4.07;3.10;;;13.20;99.90;;;;;;5013881;28;20465;-67
2022/10/30 03:13:39;;;;;;;3.77;3.10;;;13.20;99.90;;;;;;5014344;28;20485;-67
2022/10/30 03:16:08;;;;;;;5.30;3.20;;;13.10;99.90;;;;;;5014201;28;20464;-68
2022/10/30 03:18:36;;;;;;;5.37;3.50;;;13.10;99.90;;;;;;5014388;28;20493;-68
2022/10/30 03:21:05;;;;;;;4.20;3.20;;;13.10;99.90;;;;;;5013798;28;20457;-67
2022/10/30 03:23:33;;;;;;;4.00;2.70;;;13.10;99.90;;;;;;5013992;28;20461;-67
2022/10/30 03:25:59;;;;;;;5.13;3.03;;;13.00;99.90;;;;;;5013682;28;20493;-67
2022/10/30 03:28:28;;;;;;;3.93;2.83;;;13.00;99.90;;;;;;5013815;28;20848;-66
2022/10/30 03:31:00;;;;;;;4.63;3.27;;;13.00;99.90;;;;;;5013582;28;20473;-67
2022/10/30 03:33:27;;;;;;;3.83;2.57;;;13.00;99.90;;;;;;5013277;28;20492;-68
2022/10/30 03:35:54;;;;;;;5.13;3.30;;;13.00;99.90;;;;;;5013740;28;20488;-68
2022/10/30 03:38:21;;;;;;;3.80;3.37;;;13.00;99.90;;;;;;5013681;28;20470;-67
2022/10/30 03:40:48;;;;;;;4.00;3.20;;;13.00;99.90;;;;;;5013587;28;20485;-68
2022/10/30 03:43:15;;;;;;;4.03;3.43;;;12.90;99.90;;;;;;5012891;28;20454;-67
2022/10/30 03:45:47;;;;;;;4.60;2.97;;;12.90;99.90;;;;;;5013550;28;21032;-66
2022/10/30 03:48:16;;;;;;;5.47;3.97;;;12.90;99.90;;;;;;5013303;28;20480;-66
2022/10/30 03:50:42;;;;;;;4.57;3.60;;;12.80;99.90;;;;;;5013568;28;20465;-67
2022/10/30 03:53:09;;;;;;;5.53;3.60;;;12.80;99.90;;;;;;5012709;28;20996;-68
2022/10/30 03:55:36;;;;;;;4.70;3.20;;;12.80;99.90;;;;;;5013321;28;20482;-67
2022/10/30 03:58:03;;;;;;;5.40;3.47;;;12.70;99.90;;;;;;5013301;28;20462;-67
2022/10/30 04:00:30;;;;;;;3.50;3.20;;;12.70;99.90;;;;;;5013536;28;20488;-68
2022/10/30 04:02:57;;;;;;;3.83;2.90;;;12.60;99.90;;;;;;5012748;28;20465;-67
2022/10/30 04:05:25;;;;;;;4.77;3.00;;;12.60;99.90;;;;;;5013217;28;20477;-67
2022/10/30 04:07:55;;;;;;;5.30;3.80;;;12.60;99.90;;;;;;5013156;28;20462;-67
2022/10/30 04:10:22;;;;;;;4.27;3.63;;;12.60;99.90;;;;;;5013022;28;20470;-68
2022/10/30 04:12:49;;;;;;;3.23;2.83;;;12.50;99.90;;;;;;5012298;28;20462;-68
2022/10/30 04:15:16;;;;;;;3.90;3.33;;;12.50;99.90;;;;;;5012696;28;20485;-66
2022/10/30 04:17:48;;;;;;;7.43;3.20;;;12.50;99.90;;;;;;5013020;28;20458;-67
2022/10/30 04:20:15;;;;;;;4.53;3.10;;;12.50;99.90;;;;;;5012862;28;20493;-68
2022/10/30 04:22:43;;;;;;;4.27;3.87;;;12.50;99.90;;;;;;5012436;28;20461;-67
2022/10/30 04:25:10;;;;;;;5.43;2.90;;;12.50;99.90;;;;;;5012694;28;20481;-67
2022/10/30 04:27:40;;;;;;;5.47;3.20;;;12.40;99.90;;;;;;5012871;28;20549;-67
2022/10/30 04:30:10;;;;;;;3.10;2.80;;;12.40;99.90;;;;;;5012591;28;20466;-67
2022/10/30 04:32:36;;;;;;;5.60;3.20;;;12.40;99.90;;;;;;5012293;28;20465;-68
2022/10/30 04:35:04;;;;;;;5.20;3.37;;;12.40;99.90;;;;;;5012547;28;20496;-66
2022/10/30 04:37:31;;;;;;;6.47;3.37;;;12.30;99.90;;;;;;5012612;28;20949;-68
2022/10/30 04:39:59;;;;;;;4.43;3.00;;;12.30;99.90;;;;;;5012510;28;20466;-66
2022/10/30 04:42:25;;;;;;;4.27;3.20;;;12.20;99.90;;;;;;5012035;28;20462;-68
2022/10/30 04:44:52;;;;;;;8.20;3.93;;;12.20;99.90;;;;;;5012384;28;20848;-67
2022/10/30 04:47:19;;;;;;;3.70;2.80;;;12.20;99.90;;;;;;5012178;28;20991;-67
2022/10/30 04:49:46;;;;;;;7.47;5.10;;;12.10;99.90;;;;;;5012522;28;20830;-68
2022/10/30 04:52:12;;;;;;;4.20;3.07;;;12.10;99.90;;;;;;5011574;28;20488;-67
2022/10/30 04:54:39;;;;;;;5.90;3.57;;;12.10;99.90;;;;;;5012258;28;20497;-68
2022/10/30 04:57:07;;;;;;;4.67;3.50;;;12.10;99.90;;;;;;5012122;28;20471;-67
2022/10/30 04:59:34;;;;;;;5.73;3.90;;;12.10;99.90;;;;;;5012200;28;20524;-68
2022/10/30 05:02:01;;;;;;;7.13;3.60;;;12.00;99.90;;;;;;5011744;28;20608;-67
2022/10/30 05:04:28;;;;;;;4.85;2.70;;;12.00;99.90;;;;;;5012150;28;20839;-67
2022/10/30 05:06:54;;;;;;;6.00;2.37;;;11.90;99.90;;;;;;5011935;28;20207;-68
2022/10/30 05:09:21;;;;;;;4.77;2.90;;;11.90;99.90;;;;;;5011833;28;20594;-68
2022/10/30 05:11:48;;;;;;;7.60;4.00;;;11.90;99.90;;;;;;5011581;28;20509;-67
2022/10/30 05:14:16;;;;;;;9.83;3.37;;;11.90;99.90;;;;;;5011574;28;20490;-68
2022/10/30 05:16:43;;;;;;;6.15;3.50;;;11.80;99.90;;;;;;5012051;28;20469;-67
2022/10/30 05:19:09;;;;;;;7.70;3.22;;;11.80;99.90;;;;;;5011646;28;20203;-67
2022/10/30 05:21:36;;;;;;;4.10;2.57;;;11.80;99.90;;;;;;5011238;28;20559;-68
2022/10/30 05:24:03;;;;;;;3.90;3.47;;;11.80;99.90;;;;;;5010716;28;20490;-67
2022/10/30 05:26:30;;;;;;;4.93;2.60;;;11.80;99.90;;;;;;5011769;28;20218;-67
2022/10/30 05:28:57;;;;;;;3.83;3.00;;;11.70;99.90;;;;;;5011681;28;20458;-67
2022/10/30 05:31:25;;;;;;;4.33;2.63;;;11.70;99.90;;;;;;5011168;28;20466;-67
2022/10/30 05:33:51;;;;;;;5.90;3.10;;;11.70;99.90;;;;;;5011456;28;20493;-67
2022/10/30 05:36:18;;;;;;;3.80;3.20;;;11.60;99.90;;;;;;5011223;28;20462;-67
2022/10/30 05:38:45;;;;;;;4.47;2.80;;;11.60;99.90;;;;;;5011472;28;20462;-68
2022/10/30 05:41:12;;;;;;;5.85;2.90;;;11.60;99.90;;;;;;5010915;28;20469;-66
2022/10/30 05:43:39;;;;;;;3.05;2.30;;;11.60;99.90;;;;;;5011517;28;20203;-68
2022/10/30 05:46:06;;;;;;;5.45;3.10;;;11.60;99.90;;;;;;5011180;28;20234;-68
2022/10/30 05:48:34;;;;;;;3.58;2.88;;;11.50;99.90;;;;;;5074343;22;20241;-68
2022/10/30 05:51:01;;;;;;;6.10;4.72;;;11.50;99.90;;;;;;5002872;28;20583;-67
2022/10/30 05:53:28;;;;;;;7.28;2.90;;;11.50;99.90;;;;;;5010990;28;20203;-68
2022/10/30 05:55:56;;;;;;;3.65;2.80;;;11.50;99.90;;;;;;5011228;28;20227;-68
2022/10/30 05:58:23;;;;;;;4.85;2.50;;;11.50;99.90;;;;;;5011666;28;20206;-68
2022/10/30 06:00:50;;;;;;;3.33;2.72;;;11.40;99.90;;;;;;5011949;28;20211;-68
2022/10/30 06:03:16;;;;;;;5.10;3.50;;;11.40;99.90;;;;;;5010998;28;20211;-67
2022/10/30 06:05:47;;;;;;;7.00;3.67;;;11.40;99.90;;;;;;5011440;28;20222;-68
2022/10/30 06:08:15;;;;;;;3.90;3.10;;;11.30;99.90;;;;;;5011254;28;20466;-68
2022/10/30 06:10:41;;;;;;;3.50;3.08;;;11.30;99.90;;;;;;5011423;28;20553;-69
2022/10/30 06:13:10;;;;;;;7.53;3.03;;;11.30;99.90;;;;;;5010677;28;20207;-68
2022/10/30 06:15:36;;;;;;;6.55;3.15;;;11.30;99.90;;;;;;5011111;28;20497;-68
2022/10/30 06:18:03;;;;;;;5.97;3.20;;;11.20;99.90;;;;;;5011342;28;20633;-68
2022/10/30 06:20:31;;;;;;;3.70;3.08;;;11.20;99.90;;;;;;5011243;28;20572;-68
2022/10/30 06:23:01;;;;;;;6.03;3.58;;;11.20;99.90;;;;;;5010904;28;20214;-68
2022/10/30 06:25:29;;;;;;;3.45;3.08;;;11.20;99.90;;;;;;5011297;28;20223;-68
2022/10/30 06:27:56;;;;;;;4.18;3.70;;;11.20;99.90;;;;;;5011225;28;20203;-68
2022/10/30 06:30:23;;;;;;;4.28;3.10;;;11.20;99.90;;;;;;5010714;28;20455;-67
2022/10/30 06:32:49;;;;;;;4.38;3.30;;;11.20;99.90;;;;;;5010774;28;20527;-66
2022/10/30 06:35:17;;;;;;;4.45;4.05;;;11.20;99.90;;;;;;5011856;28;20231;-67
2022/10/30 06:37:48;;;;;;;4.65;2.80;;;11.20;99.90;;;;;;5014981;28;20211;-67
2022/10/30 06:40:17;;;;;;;3.70;3.25;;;11.40;99.90;;;;;;5015090;28;20556;-66
2022/10/30 06:42:44;;;;;;;4.03;3.38;;;11.50;99.90;;;;;;5014621;28;20202;-66
2022/10/30 06:45:12;;;;;;;4.07;3.60;;;11.60;99.90;;;;;;5014629;28;20645;-66
2022/10/30 06:47:38;;;;;;;4.93;3.17;;;11.70;99.90;;;;;;5014918;28;20222;-67
2022/10/30 06:50:07;;;;;;;5.07;3.53;;;11.80;99.90;;;;;;5014492;28;20211;-67
2022/10/30 06:52:33;;;;;;;4.72;2.97;;;11.90;99.90;;;;;;5014631;28;20234;-66
2022/10/30 06:55:00;;;;;;;3.55;2.90;;;11.80;99.90;;;;;;5012975;28;20721;-67
2022/10/30 06:57:28;;;;;;;4.65;3.15;;;11.70;99.90;;;;;;5011561;28;20565;-67
2022/10/30 06:59:55;;;;;;;4.72;2.58;;;11.70;99.90;;;;;;5011597;28;20516;-67
2022/10/30 07:02:22;;;;;;;4.53;2.80;;;11.80;99.90;;;;;;5011267;28;20191;-67
2022/10/30 07:04:49;;;;;;;5.65;2.95;;;11.80;99.90;;;;;;5011350;28;20246;-64
2022/10/30 07:07:16;;;;;;;3.88;2.67;;;11.80;99.90;;;;;;5011161;28;20234;-65
2022/10/30 07:09:45;;;;;;;4.95;2.80;;;11.80;99.90;;;;;;5011439;28;20570;-67
2022/10/30 07:12:12;;;;;;;5.10;3.10;;;11.80;99.90;;;;;;5010708;28;20257;-67
2022/10/30 07:14:40;;;;;;;6.47;3.20;;;11.90;99.90;;;;;;5011408;28;20494;-67
2022/10/30 07:17:07;;;;;;;7.67;3.43;;;12.00;99.90;;;;;;5010165;28;20466;-66
2022/10/30 07:19:34;;;;;;;4.73;3.27;;;12.10;99.90;;;;;;5006516;28;20965;-66
2022/10/30 07:22:01;;;;;;;6.80;3.60;;;12.20;99.90;;;;;;5012824;28;20461;-68
2022/10/30 07:24:28;;;;;;;3.80;3.00;;;12.40;99.90;;;;;;5014213;28;20485;-68
2022/10/30 07:26:55;;;;;;;6.05;3.30;;;12.40;99.90;;;;;;5014077;28;20465;-67
2022/10/30 07:29:21;;;;;;;4.80;3.38;;;12.50;99.90;;;;;;5014149;28;20199;-67
2022/10/30 07:31:50;;;;;;;7.93;3.73;;;12.60;99.90;;;;;;5013796;28;20218;-67
2022/10/30 07:34:16;;;;;;;3.67;2.77;;;12.70;99.90;;;;;;5013381;28;20837;-66
2022/10/30 07:36:43;;;;;;;3.33;2.90;;;12.70;99.90;;;;;;5013649;28;20472;-67
2022/10/30 07:39:10;;;;;;;4.33;2.90;;;12.80;99.90;;;;;;5013693;28;20462;-67
2022/10/30 07:41:36;;;;;;;4.33;3.00;;;12.90;99.90;;;;;;5013132;28;20458;-66
2022/10/30 07:44:03;;;;;;;7.20;3.03;;;13.00;99.90;;;;;;5012467;28;20481;-67
2022/10/30 07:46:30;;;;;;;3.27;2.70;;;13.10;99.90;;;;;;5013013;28;20504;-67
2022/10/30 07:48:58;;;;;;;2.83;2.60;;;13.30;99.90;;;;;;5013119;28;20470;-65
2022/10/30 07:51:25;;;;;;;4.23;3.23;;;13.50;99.90;;;;;;5012902;28;20470;-67
2022/10/30 07:53:52;;;;;;;4.40;2.87;;;13.70;99.90;;;;;;5013721;28;20462;-67
2022/10/30 07:56:18;;;;;;;2.90;2.60;;;13.90;99.90;;;;;;5013165;28;20984;-66
2022/10/30 07:58:45;;;;;;;4.10;3.20;;;14.20;99.90;;;;;;5013459;28;20537;-67
2022/10/30 08:01:12;;;;;;;2.93;2.50;;;14.50;99.90;;;;;;5012718;28;20462;-66
2022/10/30 08:03:38;;;;;;;5.43;3.27;;;14.80;99.90;;;;;;5013499;28;20466;-67
2022/10/30 08:06:07;;;;;;;3.90;2.97;;;15.10;99.90;;;;;;5013025;28;20482;-67
2022/10/30 08:08:34;;;;;;;6.67;3.23;;;15.50;99.90;;;;;;5013182;28;20968;-67
2022/10/30 08:11:00;;;;;;;7.30;3.60;;;15.80;99.90;;;;;;5012743;28;20458;-66
2022/10/30 08:13:27;;;;;;;5.17;3.90;;;16.10;99.90;;;;;;5012673;28;20465;-67
2022/10/30 08:15:54;;;;;;;7.83;3.20;;;16.40;99.90;;;;;;5012937;28;20498;-67
2022/10/30 08:18:20;;;;;;;3.63;2.80;;;16.80;99.90;;;;;;5012702;28;20469;-67
2022/10/30 08:20:49;;;;;;;3.57;3.13;;;17.10;99.90;;;;;;5012892;28;20469;-67
2022/10/30 08:23:18;;;;;;;3.30;3.00;;;17.40;99.90;;;;;;5012181;28;20472;-67
2022/10/30 08:25:45;;;;;;;4.87;3.00;;;17.70;99.90;;;;;;5012843;28;21255;-67
2022/10/30 08:28:13;;;;;;;3.20;2.90;;;18.00;99.90;;;;;;5013820;28;20457;-66
2022/10/30 08:30:40;;;;;;;5.83;3.33;;;18.30;99.90;;;;;;5012539;28;20959;-66
2022/10/30 08:33:11;;;;;;;3.33;2.87;;;18.70;99.90;;;;;;5012254;28;20835;-68
2022/10/30 08:35:38;;;;;;;8.90;3.47;;;19.00;99.90;;;;;;5012643;28;20689;-66
2022/10/30 08:38:05;;;;;;;3.87;3.10;;;19.30;99.90;;;;;;5012499;28;20469;-67
2022/10/30 08:40:33;;;;;;;5.90;4.10;;;19.60;99.90;;;;;;5012515;28;20465;-67
2022/10/30 08:43:00;;;;;;;4.00;3.10;;;20.00;99.90;;;;;;5012452;28;20462;-67
2022/10/30 08:45:27;;;;;;;4.77;3.67;;;20.20;99.90;;;;;;5012514;28;20863;-66
2022/10/30 08:47:57;;;;;;;8.40;3.50;;;20.50;99.90;;;;;;5012588;28;20477;-66
2022/10/30 08:50:24;;;;;;;5.83;3.10;;;20.60;99.90;;;;;;5012622;28;21007;-67
2022/10/30 08:52:51;;;;;;;4.50;3.30;;;20.80;99.90;;;;;;5012066;28;20829;-66
2022/10/30 08:55:17;;;;;;;5.13;3.43;;;20.90;99.90;;;;;;5012108;28;20511;-66
2022/10/30 08:57:45;;;;;;;4.33;3.50;;;21.00;99.90;;;;;;5012213;28;20959;-67
2022/10/30 09:00:13;;;;;;;5.10;3.47;;;21.20;99.90;;;;;;5012012;28;20471;-66
2022/10/30 09:02:40;;;;;;;6.60;3.67;;;21.30;99.90;;;;;;5011807;28;21016;-67
2022/10/30 09:05:07;;;;;;;4.70;3.20;;;21.40;99.90;;;;;;5012256;28;20483;-66
2022/10/30 09:07:35;;;;;;;4.30;3.40;;;21.60;99.90;;;;;;5012451;28;20466;-66
2022/10/30 09:10:02;;;;;;;5.80;3.63;;;21.80;99.90;;;;;;5012285;28;20467;-66
2022/10/30 09:12:29;;;;;;;6.97;3.63;;;21.90;99.90;;;;;;5012801;28;20977;-67
2022/10/30 09:14:57;;;;;;;6.27;3.23;;;22.00;99.90;;;;;;5012285;28;20490;-66
2022/10/30 09:17:24;;;;;;;4.83;3.80;;;22.20;99.90;;;;;;5012061;28;20463;-67
2022/10/30 09:19:50;;;;;;;6.00;3.70;;;22.20;99.90;;;;;;5012148;28;20466;-67
2022/10/30 09:22:17;;;;;;;4.00;3.53;;;22.30;99.90;;;;;;5011617;28;20909;-67
2022/10/30 09:24:44;;;;;;;4.10;3.77;;;22.40;99.90;;;;;;5011970;28;20485;-67
2022/10/30 09:27:11;;;;;;;5.93;3.90;;;22.50;99.90;;;;;;5011900;28;20469;-67
2022/10/30 09:29:37;;;;;;;4.67;3.60;;;22.60;99.90;;;;;;5012106;28;20468;-67
2022/10/30 09:32:08;;;;;;;5.13;4.23;;;22.70;99.90;;;;;;5011480;28;20474;-66
2022/10/30 09:34:36;;;;;;;3.90;3.30;;;22.80;99.90;;;;;;5011850;28;20842;-67
2022/10/30 09:37:03;;;;;;;5.87;4.03;;;22.90;99.90;;;;;;5011750;28;20464;-66
2022/10/30 09:39:29;;;;;;;6.50;3.80;;;22.90;99.90;;;;;;5011679;28;20487;-67
2022/10/30 09:42:17;;;;;;;6.87;4.17;;;23.10;99.90;;;;;;5011127;28;20458;-67
2022/10/30 09:44:55;;;;;;;7.83;4.00;;;23.20;99.90;;;;;;5012166;28;20490;-67
2022/10/30 09:47:33;;;;;;;7.05;4.10;;;23.30;99.90;;;;;;5007306;28;20472;-67
2022/10/30 09:50:13;;;;;;;5.30;3.47;;;23.40;99.90;;;;;;5011065;28;20207;-67
2022/10/30 09:52:46;;;;;;;6.30;4.50;;;23.60;99.90;;;;;;5011135;28;20988;-67
2022/10/30 09:55:25;;;;;;;4.27;3.83;;;23.80;99.90;;;;;;5010842;28;20489;-67
2022/10/30 09:58:00;;;;;;;3.50;3.13;;;24.00;99.90;;;;;;5011220;28;20465;-67
2022/10/30 10:00:33;;;;;;;5.27;3.30;;;24.20;99.90;;;;;;5011222;28;20461;-67
2022/10/30 10:03:17;;;;;;;4.27;3.87;;;24.40;99.90;;;;;;5010592;28;20470;-67
2022/10/30 10:05:50;;;;;;;4.87;3.63;;;24.50;99.90;;;;;;5011005;28;20493;-68
2022/10/30 10:08:22;;;;;;;4.23;3.80;;;24.70;99.90;;;;;;5010853;28;20485;-67
2022/10/30 10:10:52;;;;;;;5.03;4.07;;;24.90;99.90;;;;;;5011641;28;20504;-67
2022/10/30 10:13:28;;;;;;;4.37;3.70;;;24.80;99.90;;;;;;5010572;28;20467;-67
2022/10/30 10:15:58;;;;;;;3.90;3.10;;;24.90;99.90;;;;;;5010750;28;21047;-68
2022/10/30 10:18:33;;;;;;;4.57;3.57;;;25.20;99.90;;;;;;5011397;28;20454;-68
2022/10/30 10:21:12;;;;;;;3.90;3.50;;;25.40;99.90;;;;;;5010890;28;20468;-67
2022/10/30 10:23:46;;;;;;;8.30;3.50;;;25.40;99.90;;;;;;5082437;22;20493;-67
2022/10/30 10:26:26;;;;;;;5.00;3.43;;;25.70;99.90;;;;;;4979142;28;20962;-67
2022/10/30 10:29:04;;;;;;;4.23;3.57;;;25.90;99.90;;;;;;4971913;28;20466;-67
2022/10/30 10:31:41;;;;;;;4.53;4.00;;;26.00;99.90;;;;;;4971350;28;20553;-67
2022/10/30 10:34:57;;;;;;;4.90;3.20;;;26.00;99.90;;;;;;4971462;28;20844;-68
2022/10/30 10:37:35;;;;;;;4.00;3.00;;;26.00;99.90;;;;;;4949975;29;20564;-67
2022/10/30 10:40:16;;;;;;;5.00;2.87;;;26.10;99.90;;;;;;4949953;29;20479;-67
2022/10/30 10:42:54;;;;;;;4.10;3.30;;;26.20;99.90;;;;;;4965385;28;20556;-66
2022/10/30 10:45:29;;;;;;;7.40;3.27;;;26.30;99.90;;;;;;4970409;28;20487;-67
2022/10/30 10:48:16;;;;;;;3.83;2.70;;;26.40;99.90;;;;;;4972045;28;20813;-67
2022/10/30 10:50:49;;;;;;;4.67;3.10;;;26.60;99.90;;;;;;4971787;28;21043;-67
2022/10/30 10:53:22;;;;;;;5.43;3.10;;;26.80;99.90;;;;;;4971177;28;20467;-66
2022/10/30 10:55:52;;;;;;;6.23;3.17;;;27.00;99.90;;;;;;4971837;28;20587;-67
2022/10/30 10:58:27;;;;;;;5.83;3.00;;;27.20;99.90;;;;;;4971582;28;20471;-66
2022/10/30 11:00:56;;;;;;;4.83;2.93;;;27.30;99.90;;;;;;4971612;28;21025;-68
2022/10/30 11:03:29;;;;;;;3.40;2.63;;;27.50;99.90;;;;;;4971301;28;20463;-66
2022/10/30 11:06:03;;;;;;;5.17;3.17;;;27.60;99.90;;;;;;4971943;28;21007;-66
2022/10/30 11:08:31;;;;;;;4.80;2.83;;;27.60;99.90;;;;;;4972140;28;20465;-67
2022/10/30 11:11:00;;;;;;;3.40;2.50;;;27.80;99.90;;;;;;4971772;28;20529;-67
2022/10/30 11:13:30;;;;;;;2.47;2.27;;;28.00;99.90;;;;;;4971353;28;20463;-67
2022/10/30 11:16:04;;;;;;;3.50;2.50;;;28.00;99.90;;;;;;4971743;28;20575;-66
2022/10/30 11:18:32;;;;;;;4.30;2.83;;;28.00;99.90;;;;;;4972304;28;20463;-66
2022/10/30 11:21:07;;;;;;;3.77;3.07;;;28.10;99.90;;;;;;4971871;28;20467;-66
2022/10/30 11:23:38;;;;;;;3.13;2.80;;;28.10;99.90;;;;;;4975276;28;20474;-67
2022/10/30 11:26:24;;;;;;;3.20;2.60;;;28.10;99.90;;;;;;4974482;28;20492;-66
2022/10/30 11:28:54;;;;;;;3.30;2.13;;;28.10;99.90;;;;;;4975671;28;20827;-67
2022/10/30 11:31:23;;;;;;;5.00;2.67;;;28.10;99.90;;;;;;4973025;28;20464;-67
2022/10/30 11:33:50;;;;;;;3.40;3.07;;;28.10;99.90;;;;;;4974870;28;20467;-67
2022/10/30 11:36:22;;;;;;;3.80;3.30;;;28.10;99.90;;;;;;4974398;28;20495;-67
2022/10/30 11:38:49;;;;;;;3.37;2.67;;;28.20;99.90;;;;;;4974767;28;20471;-67
2022/10/30 11:41:16;;;;;;;5.63;2.80;;;28.10;99.90;;;;;;4972934;28;20471;-67
2022/10/30 11:43:44;;;;;;;6.20;2.67;;;28.00;99.90;;;;;;4974389;28;20482;-67
2022/10/30 11:46:19;;;;;;;4.83;2.93;;;27.90;99.90;;;;;;4974872;28;20468;-67
2022/10/30 11:48:53;;;;;;;3.87;2.23;;;27.60;99.90;;;;;;5057225;22;20485;-69
2022/10/30 11:51:32;;;;;;;5.50;2.93;;;27.30;99.90;;;;;;5000654;28;20513;-68
2022/10/30 11:54:00;;;;;;;3.77;3.03;;;26.90;99.90;;;;;;4993955;28;20887;-68
2022/10/30 11:56:29;;;;;;;5.90;2.93;;;26.60;99.90;;;;;;4993911;28;20491;-68
2022/10/30 11:58:58;;;;;;;4.20;3.00;;;26.40;99.90;;;;;;4993594;28;20463;-68
2022/10/30 12:01:27;;;;;;;5.00;3.37;;;26.00;99.90;;;;;;4993344;28;20473;-68
2022/10/30 12:03:55;;;;;;;4.43;2.60;;;25.70;99.90;;;;;;4993524;28;20493;-69
2022/10/30 12:06:29;;;;;;;6.43;3.20;;;25.40;99.90;;;;;;4993648;28;20458;-69
2022/10/30 12:09:00;;;;;;;5.27;3.20;;;25.20;99.90;;;;;;4993731;28;20834;-68
2022/10/30 12:11:30;;;;;;;5.83;2.97;;;25.10;99.90;;;;;;4993132;28;20525;-68
2022/10/30 12:13:58;;;;;;;3.80;3.33;;;25.00;99.90;;;;;;4993112;28;20889;-69
2022/10/30 12:16:25;;;;;;;4.70;3.50;;;25.00;99.90;;;;;;4993378;28;20486;-68
2022/10/30 12:18:57;;;;;;;5.60;3.00;;;25.00;99.90;;;;;;4993200;28;20463;-68
2022/10/30 12:21:26;;;;;;;7.77;3.30;;;25.10;99.90;;;;;;4992901;28;20490;-69
2022/10/30 12:23:56;;;;;;;5.10;3.60;;;25.20;99.90;;;;;;4992897;28;20970;-69
2022/10/30 12:26:25;;;;;;;7.13;3.80;;;25.20;99.90;;;;;;4993713;28;20455;-69
2022/10/30 12:28:58;;;;;;;4.00;2.87;;;25.30;99.90;;;;;;4993168;28;20525;-69
2022/10/30 12:31:34;;;;;;;4.60;3.20;;;25.30;99.90;;;;;;4992885;28;20847;-68
2022/10/30 12:34:15;;;;;;;3.30;2.77;;;25.30;99.90;;;;;;4992451;28;20879;-68
2022/10/30 12:36:48;;;;;;;6.60;3.50;;;25.30;99.90;;;;;;4993111;28;20498;-68
2022/10/30 12:39:20;;;;;;;4.43;2.93;;;25.40;99.90;;;;;;4989577;28;21002;-68
2022/10/30 12:41:56;;;;;;;4.33;3.57;;;25.30;99.90;;;;;;4989495;28;20553;-67
2022/10/30 12:44:27;;;;;;;5.27;3.30;;;25.20;99.90;;;;;;4989773;28;20497;-67
2022/10/30 12:47:00;;;;;;;4.03;2.83;;;25.20;99.90;;;;;;4990091;28;20477;-67
2022/10/30 12:49:34;;;;;;;7.07;3.43;;;25.10;99.90;;;;;;4989698;28;20571;-69
2022/10/30 12:52:10;;;;;;;5.73;3.00;;;25.00;99.90;;;;;;4989731;28;20525;-69
2022/10/30 12:54:44;;;;;;;6.83;3.23;;;24.90;99.90;;;;;;4990173;28;20862;-68
2022/10/30 12:57:15;;;;;;;5.40;3.00;;;25.00;99.90;;;;;;4989692;28;20601;-68
2022/10/30 12:59:55;;;;;;;5.80;3.40;;;25.00;99.90;;;;;;4990052;28;20474;-67